createdAt,value
2018-09-11T00:01:12.987Z,20.20
2018-09-11T00:03:41.843Z,20.10
2018-09-11T00:06:10.675Z,20.00
2018-09-11T00:08:40.255Z,20.00
2018-09-11T00:11:09.094Z,19.90
2018-09-11T00:13:37.934Z,19.90
2018-09-11T00:16:06.771Z,19.90
2018-09-11T00:18:35.617Z,19.70
2018-09-11T00:21:04.471Z,19.40
2018-09-11T00:23:33.317Z,19.40
2018-09-11T00:26:02.911Z,19.30
2018-09-11T00:28:31.734Z,19.30
2018-09-11T00:31:00.578Z,19.20
2018-09-11T00:33:29.413Z,19.30
2018-09-11T00:35:58.350Z,19.30
2018-09-11T00:38:27.101Z,19.20
2018-09-11T00:40:55.929Z,19.30
2018-09-11T00:43:24.779Z,19.30
2018-09-11T00:45:53.628Z,19.30
2018-09-11T00:48:22.482Z,19.30
2018-09-11T00:50:51.322Z,19.30
2018-09-11T00:53:20.166Z,19.30
2018-09-11T00:55:49.018Z,19.30
2018-09-11T00:58:17.862Z,19.30
2018-09-11T01:00:46.692Z,19.30
2018-09-11T01:03:15.541Z,19.30
2018-09-11T01:05:44.389Z,19.30
2018-09-11T01:08:13.218Z,19.20
2018-09-11T01:10:42.086Z,19.20
2018-09-11T01:13:10.922Z,19.20
2018-09-11T01:15:40.508Z,19.20
2018-09-11T01:18:10.096Z,18.90
2018-09-11T01:20:38.930Z,18.90
2018-09-11T01:23:07.780Z,18.90
2018-09-11T01:25:36.618Z,18.80
2018-09-11T01:28:05.463Z,18.70
2018-09-11T01:30:34.312Z,18.70
2018-09-11T01:33:03.156Z,18.70
2018-09-11T01:35:32.731Z,18.60
2018-09-11T01:38:01.562Z,18.70
2018-09-11T01:40:31.146Z,18.60
2018-09-11T01:42:59.987Z,18.50
2018-09-11T01:45:28.830Z,18.50
2018-09-11T01:47:58.411Z,18.30
2018-09-11T01:50:27.247Z,18.40
2018-09-11T01:52:56.080Z,18.40
2018-09-11T01:55:24.914Z,18.40
2018-09-11T01:57:54.496Z,18.50
2018-09-11T02:00:23.387Z,18.50
2018-09-11T02:02:52.232Z,18.40
2018-09-11T02:05:21.065Z,18.40
2018-09-11T02:07:49.906Z,18.30
2018-09-11T02:10:18.755Z,18.40
2018-09-11T02:12:47.600Z,18.40
2018-09-11T02:15:16.439Z,18.40
2018-09-11T02:17:45.289Z,18.10
2018-09-11T02:20:14.136Z,18.20
2018-09-11T02:22:43.721Z,18.10
2018-09-11T02:27:42.726Z,18.00
2018-09-11T02:30:12.313Z,18.00
2018-09-11T02:32:41.152Z,17.90
2018-09-11T02:35:10.741Z,17.60
2018-09-11T02:37:40.328Z,17.60
2018-09-11T02:42:39.327Z,17.60
2018-09-11T02:45:08.188Z,17.70
2018-09-11T02:47:37.055Z,17.50
2018-09-11T02:50:05.905Z,17.50
2018-09-11T02:52:34.742Z,17.50
2018-09-11T02:55:03.589Z,17.40
2018-09-11T03:00:01.862Z,17.50
2018-09-11T03:02:30.700Z,17.30
2018-09-11T03:04:59.539Z,17.30
2018-09-11T03:07:28.412Z,17.40
2018-09-11T03:09:57.247Z,17.50
2018-09-11T03:12:26.104Z,17.60
2018-09-11T03:14:54.930Z,17.60
2018-09-11T03:17:24.515Z,17.30
2018-09-11T03:19:53.356Z,17.50
2018-09-11T03:22:22.194Z,17.50
2018-09-11T03:24:51.040Z,17.50
2018-09-11T03:27:19.871Z,17.50
2018-09-11T03:29:48.724Z,17.40
2018-09-11T03:32:17.556Z,17.50
2018-09-11T03:34:46.393Z,17.50
2018-09-11T03:37:15.228Z,17.50
2018-09-11T03:39:44.077Z,17.50
2018-09-11T03:42:12.922Z,17.50
2018-09-11T03:44:42.521Z,17.50
2018-09-11T03:47:11.343Z,17.40
2018-09-11T03:49:40.183Z,17.40
2018-09-11T03:52:09.023Z,17.30
2018-09-11T03:54:37.872Z,17.30
2018-09-11T03:57:06.716Z,17.30
2018-09-11T03:59:35.559Z,17.30
2018-09-11T04:02:04.411Z,17.20
2018-09-11T04:04:33.252Z,17.20
2018-09-11T04:07:02.832Z,17.20
2018-09-11T04:09:31.673Z,17.20
2018-09-11T04:12:00.529Z,17.20
2018-09-11T04:14:29.379Z,17.20
2018-09-11T04:16:58.227Z,17.20
2018-09-11T04:19:27.068Z,17.20
2018-09-11T04:21:55.905Z,17.20
2018-09-11T04:24:25.492Z,17.10
2018-09-11T04:26:55.076Z,17.00
2018-09-11T04:29:23.908Z,16.80
2018-09-11T04:31:53.488Z,16.90
2018-09-11T04:34:22.375Z,16.80
2018-09-11T04:36:51.230Z,16.80
2018-09-11T04:39:20.076Z,16.80
2018-09-11T04:41:48.912Z,16.70
2018-09-11T04:44:17.751Z,16.70
2018-09-11T04:46:46.608Z,16.70
2018-09-11T04:49:15.453Z,16.70
2018-09-11T04:51:45.030Z,16.70
2018-09-11T04:54:13.873Z,16.70
2018-09-11T04:56:42.707Z,16.70
2018-09-11T04:59:11.557Z,16.70
2018-09-11T05:01:40.400Z,16.60
2018-09-11T05:04:09.276Z,16.50
2018-09-11T05:06:38.128Z,16.60
2018-09-11T05:09:06.964Z,16.50
2018-09-11T05:11:35.807Z,16.50
2018-09-11T05:14:04.680Z,16.50
2018-09-11T05:16:33.521Z,16.50
2018-09-11T05:19:02.372Z,16.60
2018-09-11T05:21:31.936Z,16.60
2018-09-11T05:24:00.946Z,16.70
2018-09-11T05:26:29.797Z,16.60
2018-09-11T05:28:58.636Z,16.50
2018-09-11T05:31:27.480Z,16.60
2018-09-11T05:33:56.321Z,16.50
2018-09-11T05:36:25.899Z,16.40
2018-09-11T05:38:54.825Z,16.50
2018-09-11T05:41:23.785Z,16.50
2018-09-11T05:43:52.682Z,16.40
2018-09-11T05:46:21.518Z,16.50
2018-09-11T05:48:50.374Z,16.50
2018-09-11T05:51:19.951Z,16.60
2018-09-11T05:53:48.806Z,16.70
2018-09-11T05:56:17.644Z,16.70
2018-09-11T05:58:46.491Z,16.70
2018-09-11T06:01:15.336Z,16.80
2018-09-11T06:03:44.183Z,16.90
2018-09-11T06:06:13.016Z,17.00
2018-09-11T06:08:42.612Z,17.00
2018-09-11T06:11:11.454Z,17.10
2018-09-11T06:13:40.389Z,17.10
2018-09-11T06:16:09.245Z,17.20
2018-09-11T06:18:38.121Z,17.20
2018-09-11T06:21:07.710Z,17.20
2018-09-11T06:23:36.557Z,17.30
2018-09-11T06:26:05.399Z,17.30
2018-09-11T06:28:34.244Z,17.30
2018-09-11T06:31:03.273Z,17.40
2018-09-11T06:33:32.102Z,17.40
2018-09-11T06:36:00.960Z,17.40
2018-09-11T06:38:29.806Z,17.40
2018-09-11T06:40:58.687Z,17.40
2018-09-11T06:43:27.497Z,17.40
2018-09-11T06:45:56.339Z,17.50
2018-09-11T06:48:25.919Z,17.40
2018-09-11T06:50:54.767Z,17.40
2018-09-11T06:53:23.612Z,17.50
2018-09-11T06:55:53.195Z,17.50
2018-09-11T06:58:22.031Z,17.50
2018-09-11T07:00:50.876Z,17.60
2018-09-11T07:03:19.716Z,17.60
2018-09-11T07:05:48.564Z,17.60
2018-09-11T07:08:17.405Z,17.60
2018-09-11T07:10:46.251Z,17.70
2018-09-11T07:13:15.864Z,17.70
2018-09-11T07:15:44.684Z,17.80
2018-09-11T07:18:13.522Z,17.90
2018-09-11T07:20:42.384Z,17.80
2018-09-11T07:23:11.223Z,17.80
2018-09-11T07:25:40.803Z,17.80
2018-09-11T07:28:10.390Z,17.90
2018-09-11T07:30:39.223Z,17.90
2018-09-11T07:33:08.814Z,18.00
2018-09-11T07:35:37.663Z,18.10
2018-09-11T07:38:06.516Z,18.10
2018-09-11T07:40:36.085Z,18.10
2018-09-11T07:43:04.922Z,18.20
2018-09-11T07:45:33.767Z,18.30
2018-09-11T07:48:02.573Z,18.30
2018-09-11T07:50:31.417Z,18.30
2018-09-11T07:53:00.280Z,18.40
2018-09-11T07:55:29.082Z,18.50
2018-09-11T07:57:57.911Z,18.50
2018-09-11T08:00:26.738Z,18.60
2018-09-11T08:02:55.608Z,18.80
2018-09-11T08:05:24.409Z,18.80
2018-09-11T08:07:53.251Z,18.90
2018-09-11T08:10:22.079Z,19.00
2018-09-11T08:12:51.666Z,19.00
2018-09-11T08:15:20.502Z,19.10
2018-09-11T08:17:49.343Z,19.20
2018-09-11T08:20:18.154Z,19.30
2018-09-11T08:22:47.731Z,19.40
2018-09-11T08:25:16.552Z,19.40
2018-09-11T08:27:46.133Z,19.50
2018-09-11T08:30:14.960Z,19.60
2018-09-11T08:32:43.816Z,19.70
2018-09-11T08:35:13.399Z,19.80
2018-09-11T08:37:42.248Z,19.90
2018-09-11T08:40:11.092Z,20.00
2018-09-11T08:42:39.933Z,20.10
2018-09-11T08:45:08.777Z,20.20
2018-09-11T08:47:37.628Z,20.30
2018-09-11T08:50:06.475Z,20.50
2018-09-11T08:52:36.167Z,20.60
2018-09-11T08:55:04.893Z,20.70
2018-09-11T08:57:33.733Z,20.80
2018-09-11T09:00:02.575Z,20.90
2018-09-11T09:02:31.404Z,21.00
2018-09-11T09:05:00.233Z,21.00
2018-09-11T09:07:29.823Z,21.10
2018-09-11T09:09:58.666Z,21.20
2018-09-11T09:12:27.493Z,21.30
2018-09-11T09:14:56.355Z,21.40
2018-09-11T09:17:25.196Z,21.50
2018-09-11T09:19:54.789Z,21.60
2018-09-11T09:22:23.626Z,21.90
2018-09-11T09:24:52.459Z,21.90
2018-09-11T09:27:21.325Z,22.00
2018-09-11T09:29:50.156Z,22.10
2018-09-11T09:32:19.757Z,22.20
2018-09-11T09:34:48.585Z,22.30
2018-09-11T09:37:18.150Z,22.40
2018-09-11T09:39:46.995Z,22.50
2018-09-11T09:42:15.834Z,22.50
2018-09-11T09:44:45.408Z,22.60
2018-09-11T09:47:14.244Z,22.70
2018-09-11T09:49:43.092Z,22.90
2018-09-11T09:52:11.923Z,23.00
2018-09-11T09:54:40.759Z,23.10
2018-09-11T09:57:09.609Z,23.20
2018-09-11T09:59:38.443Z,23.20
2018-09-11T10:02:07.736Z,23.20
2018-09-11T10:04:36.679Z,23.30
2018-09-11T10:07:06.138Z,23.30
2018-09-11T10:09:35.029Z,23.50
2018-09-11T10:12:03.831Z,23.60
2018-09-11T10:14:32.677Z,23.70
2018-09-11T10:17:01.516Z,23.50
2018-09-11T10:19:30.361Z,23.60
2018-09-11T10:21:59.186Z,23.80
2018-09-11T10:24:28.050Z,23.90
2018-09-11T10:26:57.154Z,24.00
2018-09-11T10:29:26.463Z,24.10
2018-09-11T10:31:55.288Z,24.30
2018-09-11T10:34:24.128Z,24.30
2018-09-11T10:36:52.970Z,24.10
2018-09-11T10:39:21.853Z,24.20
2018-09-11T10:41:50.636Z,24.30
2018-09-11T10:44:20.218Z,24.40
2018-09-11T10:46:49.054Z,24.60
2018-09-11T10:49:17.900Z,24.70
2018-09-11T10:51:46.759Z,24.60
2018-09-11T10:54:15.579Z,24.70
2018-09-11T10:56:44.435Z,24.70
2018-09-11T10:59:13.264Z,24.80
2018-09-11T11:01:42.115Z,24.80
2018-09-11T11:04:10.944Z,24.80
2018-09-11T11:06:39.781Z,24.80
2018-09-11T11:09:08.639Z,24.90
2018-09-11T11:11:37.454Z,25.00
2018-09-11T11:14:06.350Z,25.00
2018-09-11T11:16:35.137Z,25.00
2018-09-11T11:19:03.963Z,25.20
2018-09-11T11:21:32.787Z,25.10
2018-09-11T11:24:01.635Z,25.20
2018-09-11T11:26:30.465Z,25.10
2018-09-11T11:29:00.049Z,25.20
2018-09-11T11:31:28.900Z,25.20
2018-09-11T11:33:57.736Z,25.20
2018-09-11T11:36:27.423Z,25.20
2018-09-11T11:38:56.160Z,25.30
2018-09-11T11:41:25.002Z,25.30
2018-09-11T11:43:53.845Z,25.30
2018-09-11T11:46:22.679Z,25.20
2018-09-11T11:48:51.518Z,25.30
2018-09-11T11:51:20.362Z,25.30
2018-09-11T11:53:49.213Z,25.50
2018-09-11T11:56:18.053Z,25.70
2018-09-11T11:58:46.909Z,25.60
2018-09-11T12:01:15.750Z,25.60
2018-09-11T12:03:44.608Z,25.70
2018-09-11T12:06:13.463Z,25.80
2018-09-11T12:08:42.302Z,25.70
2018-09-11T12:11:11.892Z,25.70
2018-09-11T12:13:40.769Z,25.90
2018-09-11T12:16:09.669Z,26.10
2018-09-11T12:18:38.466Z,26.10
2018-09-11T12:21:07.298Z,26.10
2018-09-11T12:23:36.130Z,26.30
2018-09-11T12:26:04.991Z,26.20
2018-09-11T12:28:33.804Z,26.30
2018-09-11T12:31:02.652Z,26.20
2018-09-11T12:33:31.485Z,26.40
2018-09-11T12:36:00.324Z,26.60
2018-09-11T12:38:29.169Z,26.70
2018-09-11T12:40:58.008Z,26.70
2018-09-11T12:43:26.854Z,26.70
2018-09-11T12:45:55.751Z,26.80
2018-09-11T12:48:24.823Z,27.00
2018-09-11T12:50:53.351Z,27.10
2018-09-11T12:53:22.184Z,27.30
2018-09-11T12:55:51.025Z,27.20
2018-09-11T12:58:19.868Z,27.30
2018-09-11T13:00:48.704Z,27.50
2018-09-11T13:03:17.546Z,27.40
2018-09-11T13:05:46.387Z,27.30
2018-09-11T13:08:15.223Z,27.40
2018-09-11T13:10:44.065Z,27.60
2018-09-11T13:13:12.900Z,27.60
2018-09-11T13:15:41.756Z,27.70
2018-09-11T13:18:10.584Z,27.90
2018-09-11T13:20:39.415Z,28.00
2018-09-11T13:23:08.252Z,28.10
2018-09-11T13:25:37.084Z,28.00
2018-09-11T13:28:06.655Z,28.10
2018-09-11T13:30:35.533Z,28.20
2018-09-11T13:33:04.358Z,28.50
2018-09-11T13:35:33.216Z,28.30
2018-09-11T13:38:02.051Z,28.20
2018-09-11T13:40:30.892Z,28.10
2018-09-11T13:42:59.750Z,28.00
2018-09-11T13:45:28.582Z,28.30
2018-09-11T13:47:57.472Z,28.20
2018-09-11T13:50:26.270Z,28.20
2018-09-11T13:52:55.133Z,28.40
2018-09-11T13:55:23.938Z,28.40
2018-09-11T13:57:52.768Z,28.50
2018-09-11T14:00:21.598Z,28.60
2018-09-11T14:02:50.431Z,28.70
2018-09-11T14:05:19.275Z,28.70
2018-09-11T14:07:48.120Z,28.70
2018-09-11T14:10:17.684Z,28.80
2018-09-11T14:12:46.518Z,28.90
2018-09-11T14:15:15.366Z,28.90
2018-09-11T14:17:44.193Z,29.00
2018-09-11T14:20:13.031Z,28.90
2018-09-11T14:22:41.867Z,28.90
2018-09-11T14:25:10.722Z,28.80
2018-09-11T14:27:39.564Z,28.60
2018-09-11T14:30:08.401Z,28.70
2018-09-11T14:32:37.226Z,28.80
2018-09-11T14:35:06.081Z,28.80
2018-09-11T14:37:34.942Z,28.80
2018-09-11T14:40:03.786Z,28.80
2018-09-11T14:42:33.377Z,29.00
2018-09-11T14:45:02.217Z,29.00
2018-09-11T14:47:31.074Z,29.00
2018-09-11T14:50:00.661Z,28.80
2018-09-11T14:52:29.523Z,28.90
2018-09-11T14:54:58.315Z,28.90
2018-09-11T14:57:27.213Z,28.90
2018-09-11T14:59:55.992Z,29.00
2018-09-11T15:02:24.828Z,29.00
2018-09-11T15:04:53.679Z,28.80
2018-09-11T15:07:22.502Z,28.80
2018-09-11T15:09:52.081Z,28.80
2018-09-11T15:12:20.915Z,29.00
2018-09-11T15:14:49.755Z,28.90
2018-09-11T15:17:18.582Z,29.00
2018-09-11T15:19:48.170Z,29.00
2018-09-11T15:22:17.017Z,29.00
2018-09-11T15:24:45.848Z,29.00
2018-09-11T15:27:14.723Z,29.00
2018-09-11T15:29:43.601Z,28.80
2018-09-11T15:32:12.412Z,28.80
2018-09-11T15:34:41.254Z,28.90
2018-09-11T15:37:10.097Z,28.80
2018-09-11T15:39:38.950Z,28.90
2018-09-11T15:42:07.790Z,28.70
2018-09-11T15:44:36.616Z,28.80
2018-09-11T15:47:05.472Z,28.80
2018-09-11T15:49:34.289Z,28.80
2018-09-11T15:52:03.117Z,28.60
2018-09-11T15:54:31.989Z,28.60
2018-09-11T15:57:00.024Z,28.70
2018-09-11T15:59:28.856Z,28.40
2018-09-11T16:01:57.757Z,28.50
2018-09-11T16:04:26.559Z,28.50
2018-09-11T16:06:55.466Z,28.30
2018-09-11T16:09:24.986Z,28.40
2018-09-11T16:11:53.830Z,28.40
2018-09-11T16:14:22.668Z,28.40
2018-09-11T16:16:51.500Z,28.40
2018-09-11T16:19:20.351Z,28.40
2018-09-11T16:21:49.206Z,28.40
2018-09-11T16:24:18.035Z,28.30
2018-09-11T16:26:46.878Z,28.20
2018-09-11T16:29:15.722Z,28.20
2018-09-11T16:31:45.296Z,28.10
2018-09-11T16:34:14.204Z,28.10
2018-09-11T16:36:42.971Z,28.10
2018-09-11T16:39:11.813Z,28.10
2018-09-11T16:41:40.644Z,28.00
2018-09-11T16:44:09.475Z,27.90
2018-09-11T16:46:38.343Z,27.80
2018-09-11T16:49:07.167Z,27.70
2018-09-11T16:51:36.002Z,27.70
2018-09-11T16:54:04.834Z,27.60
2018-09-11T16:56:33.690Z,27.50
2018-09-11T16:59:02.525Z,27.40
2018-09-11T17:01:31.393Z,27.40
2018-09-11T17:04:01.083Z,27.30
2018-09-11T17:06:29.808Z,27.20
2018-09-11T17:08:58.649Z,27.10
2018-09-11T17:11:27.486Z,27.00
2018-09-11T17:13:56.349Z,27.00
2018-09-11T17:16:25.934Z,26.80
2018-09-11T17:18:54.771Z,26.80
2018-09-11T17:21:23.608Z,26.60
2018-09-11T17:24:05.168Z,26.50
2018-09-11T17:26:34.016Z,26.40
2018-09-11T17:29:03.627Z,26.30
2018-09-11T17:31:33.205Z,26.30
2018-09-11T17:34:02.063Z,26.30
2018-09-11T17:36:30.905Z,26.30
2018-09-11T17:38:59.762Z,26.20
2018-09-11T17:41:28.612Z,26.10
2018-09-11T17:43:57.559Z,25.90
2018-09-11T17:46:26.415Z,25.80
2018-09-11T17:48:55.289Z,25.70
2018-09-11T17:51:24.823Z,25.60
2018-09-11T17:53:53.659Z,25.50
2018-09-11T17:56:57.665Z,25.50
2018-09-11T17:59:26.483Z,25.40
2018-09-11T18:01:55.329Z,25.40
2018-09-11T18:04:24.489Z,25.20
2018-09-11T18:06:53.214Z,25.20
2018-09-11T18:09:22.051Z,25.10
2018-09-11T18:11:50.875Z,25.00
2018-09-11T18:14:19.723Z,24.90
2018-09-11T18:16:49.301Z,24.90
2018-09-11T18:19:18.155Z,24.80
2018-09-11T18:21:46.990Z,24.80
2018-09-11T18:24:16.567Z,24.70
2018-09-11T18:29:15.611Z,24.40
2018-09-11T18:31:45.208Z,24.40
2018-09-11T18:34:14.773Z,24.30
2018-09-11T18:36:43.682Z,24.30
2018-09-11T18:39:12.480Z,24.00
2018-09-11T18:41:41.338Z,24.00
2018-09-11T18:44:10.173Z,23.90
2018-09-11T18:46:39.021Z,23.90
2018-09-11T18:49:07.855Z,23.90
2018-09-11T18:51:37.497Z,23.80
2018-09-11T18:54:07.048Z,23.70
2018-09-11T18:56:35.928Z,23.60
2018-09-11T18:59:04.786Z,23.70
2018-09-11T19:01:33.560Z,23.60
2018-09-11T19:04:02.491Z,23.50
2018-09-11T19:06:31.331Z,23.40
2018-09-11T19:09:00.167Z,23.40
2018-09-11T19:11:29.015Z,23.40
2018-09-11T19:13:57.851Z,23.30
2018-09-11T19:16:26.696Z,23.00
2018-09-11T19:18:55.543Z,23.10
2018-09-11T19:21:24.377Z,23.00
2018-09-11T19:23:53.221Z,23.00
2018-09-11T19:26:22.088Z,22.90
2018-09-11T19:28:51.011Z,22.80
2018-09-11T19:31:19.745Z,22.80
2018-09-11T19:33:48.638Z,22.90
2018-09-11T19:36:18.162Z,22.80
2018-09-11T19:38:47.009Z,22.90
2018-09-11T19:41:15.858Z,22.90
2018-09-11T19:43:44.692Z,23.00
2018-09-11T19:46:13.533Z,22.80
2018-09-11T19:48:42.363Z,22.80
2018-09-11T19:51:11.208Z,22.70
2018-09-11T19:53:40.041Z,22.70
2018-09-11T19:56:08.928Z,22.70
2018-09-11T19:58:38.531Z,22.50
2018-09-11T20:01:07.389Z,22.30
2018-09-11T20:03:36.203Z,22.10
2018-09-11T20:06:05.026Z,22.10
2018-09-11T20:08:33.867Z,21.80
2018-09-11T20:11:02.712Z,21.70
2018-09-11T20:13:31.551Z,21.60
2018-09-11T20:16:00.393Z,21.60
2018-09-11T20:18:29.223Z,21.70
2018-09-11T20:20:58.062Z,21.80
2018-09-11T20:23:26.901Z,21.80
2018-09-11T20:25:55.739Z,21.80
2018-09-11T20:28:24.591Z,21.90
2018-09-11T20:30:53.442Z,21.90
2018-09-11T20:33:22.280Z,22.00
2018-09-11T20:35:51.120Z,21.90
2018-09-11T20:38:19.970Z,21.80
2018-09-11T20:40:49.681Z,21.70
2018-09-11T20:43:18.398Z,21.80
2018-09-11T20:45:47.232Z,21.80
2018-09-11T20:48:16.078Z,21.70
2018-09-11T20:50:45.454Z,21.70
2018-09-11T20:53:14.291Z,21.60
2018-09-11T20:55:43.135Z,21.60
2018-09-11T20:58:12.742Z,21.50
2018-09-11T21:00:41.551Z,21.40
2018-09-11T21:03:10.380Z,21.40
2018-09-11T21:05:39.220Z,21.40
2018-09-11T21:08:08.092Z,21.40
2018-09-11T21:10:36.942Z,21.40
2018-09-11T21:13:06.165Z,21.40
2018-09-11T21:15:35.018Z,21.50
2018-09-11T21:18:03.866Z,21.40
2018-09-11T21:20:32.714Z,21.30
2018-09-11T21:23:01.550Z,21.30
2018-09-11T21:25:30.402Z,21.30
2018-09-11T21:27:59.227Z,21.30
2018-09-11T21:30:28.229Z,21.30
2018-09-11T21:32:57.104Z,21.30
2018-09-11T21:35:25.965Z,21.10
2018-09-11T21:37:54.820Z,21.10
2018-09-11T21:40:23.682Z,21.00
2018-09-11T21:42:52.522Z,21.00
2018-09-11T21:45:21.356Z,21.10
2018-09-11T21:47:50.195Z,21.00
2018-09-11T21:50:19.852Z,21.00
2018-09-11T21:52:48.672Z,20.90
2018-09-11T21:55:17.554Z,20.90
2018-09-11T21:57:46.387Z,20.80
2018-09-11T22:00:15.276Z,20.80
2018-09-11T22:02:44.073Z,20.80
2018-09-11T22:05:13.649Z,20.70
2018-09-11T22:07:42.489Z,20.80
2018-09-11T22:10:11.327Z,20.90
2018-09-11T22:15:10.338Z,20.90
2018-09-11T22:17:39.177Z,20.80
2018-09-11T22:20:08.023Z,20.80
2018-09-11T22:22:36.874Z,20.60
2018-09-11T22:25:05.709Z,20.60
2018-09-11T22:27:35.493Z,20.50
2018-09-11T22:30:04.332Z,20.40
2018-09-11T22:32:33.173Z,20.40
2018-09-11T22:35:02.025Z,20.40
2018-09-11T22:37:30.840Z,20.30
2018-09-11T22:39:59.691Z,20.30
2018-09-11T22:42:28.527Z,20.40
2018-09-11T22:44:57.352Z,20.40
2018-09-11T22:47:26.920Z,20.00
2018-09-11T22:49:55.760Z,19.70
2018-09-11T22:52:24.595Z,19.60
2018-09-11T22:54:53.423Z,19.60
2018-09-11T22:57:22.259Z,19.50
2018-09-11T22:59:51.100Z,19.50
2018-09-11T23:02:20.682Z,19.60
2018-09-11T23:04:49.537Z,19.70
2018-09-11T23:07:18.370Z,19.70
2018-09-11T23:09:47.218Z,19.60
2018-09-11T23:12:16.054Z,19.70
2018-09-11T23:17:14.315Z,19.60
2018-09-11T23:19:43.149Z,19.70
2018-09-11T23:22:12.732Z,19.60
2018-09-11T23:27:11.007Z,19.60
2018-09-11T23:29:39.854Z,19.60
2018-09-11T23:32:09.427Z,19.50
2018-09-11T23:34:38.270Z,19.50
2018-09-11T23:37:07.099Z,19.50
2018-09-11T23:39:35.951Z,19.40
2018-09-11T23:42:04.783Z,19.40
2018-09-11T23:44:33.622Z,19.40
2018-09-11T23:47:02.441Z,19.40
2018-09-11T23:49:31.350Z,19.50
2018-09-11T23:52:00.197Z,19.50
2018-09-11T23:54:29.028Z,19.40
2018-09-11T23:56:57.858Z,19.40
2018-09-11T23:59:26.695Z,19.40
